Time;durP1;ratioP1;P1;durP2;ratioP2;P2;SDS_P1;SDS_P2;PMS_P1;PMS_P2;Temp;Humidity;BMP_temperature;BMP_pressure;BME280_temperature;BME280_humidity;BME280_pressure;Samples;Min_cycle;Max_cycle;Signal;HPM_P1;HPM_P2
2022/01/15 00:02:14;;;;;;;19.90;18.60;;;;;;;-141.02;100.00;84783.47;5133488;27;20197;-80
2022/01/15 00:04:41;;;;;;;20.80;19.43;;;;;;;-141.02;100.00;85150.81;5133613;27;20200;-76
2022/01/15 00:07:08;;;;;;;21.43;20.10;;;;;;;-141.02;100.00;85170.25;5133381;27;20667;-80
2022/01/15 00:09:37;;;;;;;18.23;17.33;;;;;;;-141.02;100.00;85135.28;5133490;27;20252;-80
2022/01/15 00:12:05;;;;;;;18.87;17.97;;;;;;;-141.02;100.00;85197.47;5133585;27;20199;-80
2022/01/15 00:14:38;;;;;;;20.03;18.93;;;;;;;-141.02;100.00;85152.78;5133384;27;20188;-78
2022/01/15 00:17:07;;;;;;;20.57;19.17;;;;;;;-141.02;100.00;85160.53;5132836;28;20228;-80
2022/01/15 00:19:41;;;;;;;19.50;18.23;;;;;;;-141.02;100.00;85176.09;5133253;28;20288;-77
2022/01/15 00:22:10;;;;;;;20.33;19.20;;;;;;;-141.02;100.00;85191.66;5133557;27;20263;-80
2022/01/15 00:24:37;;;;;;;18.50;17.50;;;;;;;-141.02;100.00;85176.09;5133353;27;20322;-79
2022/01/15 00:27:06;;;;;;;18.47;17.57;;;;;;;-141.02;100.00;85137.22;5133324;28;20299;-79
2022/01/15 00:29:35;;;;;;;20.03;18.87;;;;;;;-141.02;100.00;85172.22;5133284;27;20682;-80
2022/01/15 00:32:04;;;;;;;22.17;20.83;;;;;;;-141.02;100.00;85174.16;5133205;27;20200;-76
2022/01/15 00:34:31;;;;;;;21.43;19.90;;;;;;;-141.02;100.00;85185.81;5133230;27;20257;-77
2022/01/15 00:36:59;;;;;;;20.50;19.17;;;;;;;-141.02;100.00;85183.88;5133151;27;20188;-78
2022/01/15 00:39:27;;;;;;;18.87;17.97;;;;;;;-141.02;100.00;85141.09;5133682;28;20228;-77
2022/01/15 00:41:54;;;;;;;19.63;18.63;;;;;;;-141.02;100.00;85191.66;5133589;28;20197;-79
2022/01/15 00:44:22;;;;;;;19.40;18.50;;;;;;;-141.02;100.00;85164.44;5133326;27;20196;-78
2022/01/15 00:46:51;;;;;;;18.30;17.50;;;;;;;-141.02;100.00;85172.22;5133074;28;20275;-78
2022/01/15 00:49:18;;;;;;;20.63;19.53;;;;;;;-141.02;100.00;85179.97;5132718;28;20228;-78
2022/01/15 00:51:45;;;;;;;20.37;19.37;;;;;;;-141.02;100.00;84884.53;5133022;28;20192;-77
2022/01/15 00:54:12;;;;;;;18.00;17.20;;;;;;;-141.02;100.00;85178.03;5133160;27;20200;-78
2022/01/15 00:56:39;;;;;;;17.90;17.10;;;;;;;-141.02;100.00;85148.88;5132944;27;20246;-77
2022/01/15 00:59:06;;;;;;;18.77;17.87;;;;;;;-141.02;100.00;85129.44;5133552;28;20784;-77
2022/01/15 01:01:34;;;;;;;19.43;18.43;;;;;;;-141.02;100.00;85179.97;5132925;28;20241;-77
2022/01/15 01:04:03;;;;;;;19.97;18.97;;;;;;;-141.02;100.00;85176.09;5132617;28;20238;-78
2022/01/15 01:06:29;;;;;;;19.80;18.47;;;;;;;-141.02;100.00;85172.22;5134024;27;20192;-79
2022/01/15 01:08:56;;;;;;;56.33;26.07;;;;;;;-141.02;100.00;85164.44;5136504;27;20204;-78
2022/01/15 01:11:31;;;;;;;20.70;19.23;;;;;;;-141.02;100.00;85148.88;5136422;27;20280;-78
2022/01/15 01:24:54;;;;;;;19.40;18.50;;;;;;;-141.02;100.00;85104.19;5136107;27;20215;-77
2022/01/15 01:27:26;;;;;;;21.13;20.13;;;;;;;-141.02;100.00;85133.31;5136423;27;20188;-76
2022/01/15 01:30:08;;;;;;;21.10;20.07;;;;;;;-141.02;100.00;85170.25;5136155;27;20646;-77
2022/01/15 01:32:46;;;;;;;20.77;19.67;;;;;;;-141.02;100.00;85168.31;5136452;27;20187;-76
2022/01/15 01:35:28;;;;;;;21.77;20.43;;;;;;;-141.02;100.00;85166.38;5136366;27;20219;-77
2022/01/15 01:37:59;;;;;;;21.37;20.37;;;;;;;-141.02;100.00;85160.53;5136259;27;20320;-76
2022/01/15 01:40:37;;;;;;;20.93;19.93;;;;;;;-141.02;100.00;85148.88;5136240;27;20185;-78
2022/01/15 01:43:15;;;;;;;22.77;20.83;;;;;;;-141.02;100.00;85115.84;5136147;27;20188;-77
2022/01/15 01:45:48;;;;;;;20.03;19.13;;;;;;;-141.02;100.00;85166.38;5135848;27;20650;-77
2022/01/15 01:48:15;;;;;;;22.60;21.30;;;;;;;-141.02;100.00;85183.88;5136080;27;20189;-77
2022/01/15 01:50:44;;;;;;;24.90;22.83;;;;;;;-141.02;100.00;85207.19;5135666;27;20287;-76
2022/01/15 01:53:11;;;;;;;20.93;19.63;;;;;;;-141.02;100.00;85005.03;5135923;27;20193;-77
2022/01/15 01:55:38;;;;;;;19.30;18.33;;;;;;;-141.02;100.00;85160.53;5135791;27;20231;-77
2022/01/15 01:58:05;;;;;;;21.77;20.30;;;;;;;-141.02;100.00;85172.22;5135463;27;20263;-77
2022/01/15 02:00:33;;;;;;;21.90;20.27;;;;;;;-141.02;100.00;85121.66;5135498;27;20630;-77
2022/01/15 02:03:00;;;;;;;18.23;17.17;;;;;;;-141.02;100.00;85187.75;5135864;27;20249;-78
2022/01/15 02:05:27;;;;;;;21.03;19.40;;;;;;;-141.02;100.00;85178.03;5135677;27;20266;-78
2022/01/15 02:07:55;;;;;;;18.50;17.60;;;;;;;-141.02;100.00;85148.88;5135329;27;20201;-78
2022/01/15 02:10:23;;;;;;;21.37;19.87;;;;;;;-141.02;100.00;85168.31;5135789;27;20196;-77
2022/01/15 02:12:52;;;;;;;21.97;20.57;;;;;;;-141.02;100.00;85191.66;5135352;27;20189;-78
2022/01/15 02:15:21;;;;;;;20.37;19.37;;;;;;;-141.02;100.00;85148.88;5135185;27;20279;-76
2022/01/15 02:17:50;;;;;;;19.57;18.67;;;;;;;-141.02;100.00;85176.09;5134334;27;20650;-77
2022/01/15 02:25:53;;;;;;;19.60;18.70;;;;;;;-141.02;100.00;85160.53;5135178;27;20187;-77
2022/01/15 02:28:22;;;;;;;20.77;19.77;;;;;;;-141.02;100.00;85141.09;5134920;27;20192;-77
2022/01/15 02:30:53;;;;;;;20.47;19.47;;;;;;;-141.02;100.00;85071.13;5134871;27;20571;-77
2022/01/15 02:33:20;;;;;;;23.17;21.77;;;;;;;-141.02;100.00;85156.66;5134917;27;20258;-77
2022/01/15 02:35:48;;;;;;;21.40;20.10;;;;;;;-141.02;100.00;85160.53;5135083;27;20192;-78
2022/01/15 02:38:16;;;;;;;24.80;23.03;;;;;;;-141.02;100.00;85145.00;5134667;27;20231;-79
2022/01/15 02:40:44;;;;;;;18.97;18.17;;;;;;;-141.02;100.00;85156.66;5134730;27;20228;-77
2022/01/15 02:43:15;;;;;;;22.17;21.27;;;;;;;-141.02;100.00;85176.09;5135238;27;20230;-78
2022/01/15 02:45:44;;;;;;;27.13;19.93;;;;;;;-141.02;100.00;85094.47;5134818;27;20188;-77
2022/01/15 02:48:12;;;;;;;21.93;20.77;;;;;;;-141.02;100.00;85102.22;5134839;27;20568;-79
2022/01/15 02:50:39;;;;;;;21.87;20.83;;;;;;;-141.02;100.00;85176.09;5134552;27;20201;-76
2022/01/15 02:53:09;;;;;;;19.80;18.63;;;;;;;-141.02;100.00;85139.16;5134403;27;20227;-77
2022/01/15 02:55:37;;;;;;;19.10;18.17;;;;;;;-141.02;100.00;85090.56;5134677;27;20228;-78
2022/01/15 02:58:04;;;;;;;23.47;22.00;;;;;;;-141.02;100.00;85179.97;5134289;27;20316;-77
2022/01/15 03:00:31;;;;;;;20.23;19.13;;;;;;;-141.02;100.00;85141.09;5134555;27;20283;-78
2022/01/15 03:02:58;;;;;;;18.90;18.10;;;;;;;-141.02;100.00;85121.66;5134255;27;20227;-77
2022/01/15 03:05:25;;;;;;;23.13;22.07;;;;;;;-141.02;100.00;85125.56;5134517;27;20192;-78
2022/01/15 03:07:52;;;;;;;21.23;20.43;;;;;;;-141.02;100.00;85133.31;5134138;27;20641;-77
2022/01/15 03:10:20;;;;;;;20.10;19.20;;;;;;;-141.02;100.00;84919.53;5134126;27;20228;-76
2022/01/15 03:12:47;;;;;;;19.27;18.40;;;;;;;-141.02;100.00;85057.53;5134426;27;20279;-76
2022/01/15 03:15:19;;;;;;;19.30;18.33;;;;;;;-141.02;100.00;85100.28;5133958;27;20557;-78
2022/01/15 03:17:46;;;;;;;19.97;19.17;;;;;;;-141.02;100.00;85119.72;5134026;27;20235;-76
2022/01/15 03:20:15;;;;;;;22.83;21.00;;;;;;;-141.02;100.00;84853.44;5133973;27;20231;-77
2022/01/15 03:22:43;;;;;;;24.17;22.27;;;;;;;-141.02;100.00;85115.84;5134147;27;20269;-77
2022/01/15 03:25:11;;;;;;;21.63;20.67;;;;;;;-141.02;100.00;85090.56;5134686;27;20236;-77
2022/01/15 03:27:40;;;;;;;20.37;19.57;;;;;;;-141.02;100.00;85075.03;5134090;27;20280;-75
2022/01/15 03:30:09;;;;;;;20.33;19.53;;;;;;;-141.02;100.00;84905.91;5133443;27;20711;-76
2022/01/15 03:32:37;;;;;;;24.87;23.17;;;;;;;-141.02;100.00;85098.34;5134045;27;20287;-77
2022/01/15 03:35:05;;;;;;;20.13;19.33;;;;;;;-141.02;100.00;84942.84;5133973;27;20197;-77
2022/01/15 03:37:32;;;;;;;23.70;22.07;;;;;;;-141.02;100.00;85067.25;5133741;27;20238;-77
2022/01/15 03:39:59;;;;;;;21.30;20.33;;;;;;;-141.02;100.00;85032.25;5133774;27;20263;-78
2022/01/15 03:42:26;;;;;;;23.87;21.90;;;;;;;-141.02;100.00;85076.97;5133926;27;20189;-80
2022/01/15 03:44:54;;;;;;;20.67;19.47;;;;;;;-141.02;100.00;85106.13;5133712;27;20746;-78
2022/01/15 03:47:21;;;;;;;21.97;20.67;;;;;;;-141.02;100.00;85125.56;5133467;27;20654;-78
2022/01/15 03:49:48;;;;;;;19.33;18.57;;;;;;;-141.02;100.00;85098.34;5133743;27;20228;-77
2022/01/15 03:52:15;;;;;;;19.87;18.67;;;;;;;-141.02;100.00;85133.31;5133711;27;20218;-79
2022/01/15 03:54:42;;;;;;;18.40;17.70;;;;;;;-141.02;100.00;85106.13;5133645;27;20276;-76
2022/01/15 03:57:09;;;;;;;19.47;18.57;;;;;;;-141.02;100.00;85086.69;5133276;27;20226;-76
2022/01/15 03:59:36;;;;;;;20.47;19.57;;;;;;;-141.02;100.00;85125.56;5133230;27;20816;-76
2022/01/15 04:02:05;;;;;;;22.77;21.70;;;;;;;-141.02;100.00;85121.66;5133499;27;20232;-77
2022/01/15 04:04:32;;;;;;;20.47;19.50;;;;;;;-141.02;100.00;85094.47;5133174;27;20192;-77
2022/01/15 04:06:59;;;;;;;21.30;20.20;;;;;;;-141.02;100.00;85055.59;5133745;27;20192;-78
2022/01/15 04:09:26;;;;;;;20.83;19.93;;;;;;;-141.02;100.00;85117.78;5133388;27;20196;-78
2022/01/15 04:11:53;;;;;;;20.40;19.17;;;;;;;-141.02;100.00;85102.22;5133417;27;20283;-77
2022/01/15 04:14:20;;;;;;;20.00;19.10;;;;;;;-141.02;100.00;85098.34;5133130;27;20725;-76
2022/01/15 04:16:47;;;;;;;23.63;22.13;;;;;;;-141.02;100.00;85121.66;5132792;27;20231;-77
2022/01/15 04:19:16;;;;;;;20.27;19.47;;;;;;;-141.02;100.00;85131.38;5133169;27;20266;-77
2022/01/15 04:21:43;;;;;;;19.87;18.90;;;;;;;-141.02;100.00;85075.03;5132925;28;20548;-78
2022/01/15 04:24:10;;;;;;;18.97;18.07;;;;;;;-141.02;100.00;85110.00;5132973;28;20200;-78
2022/01/15 04:26:37;;;;;;;21.10;20.30;;;;;;;-141.02;100.00;85121.66;5133412;28;20193;-77
2022/01/15 04:29:06;;;;;;;21.57;20.57;;;;;;;-141.02;100.00;85110.00;5132918;28;20633;-79
2022/01/15 04:31:46;;;;;;;22.03;21.13;;;;;;;-141.02;100.00;85098.34;5132965;28;20202;-78
2022/01/15 04:34:17;;;;;;;20.87;20.07;;;;;;;-141.02;100.00;85084.75;5132945;28;20210;-79
2022/01/15 04:36:44;;;;;;;18.70;18.00;;;;;;;-141.02;100.00;85104.19;5132833;27;20197;-77
2022/01/15 04:39:11;;;;;;;19.57;18.43;;;;;;;-141.02;100.00;85133.31;5133017;28;20250;-79
2022/01/15 04:41:38;;;;;;;18.63;17.93;;;;;;;-141.02;100.00;85139.16;5136391;27;20195;-78
2022/01/15 04:44:06;;;;;;;20.47;19.37;;;;;;;-141.02;100.00;85121.66;5136979;27;20701;-78
2022/01/15 04:46:35;;;;;;;20.17;19.37;;;;;;;-141.02;100.00;85075.03;5136892;27;20243;-77
2022/01/15 04:49:03;;;;;;;20.07;19.27;;;;;;;-141.02;100.00;85129.44;5136794;27;20196;-78
2022/01/15 04:51:32;;;;;;;21.10;20.20;;;;;;;-141.02;100.00;85117.78;5137092;27;20227;-77
2022/01/15 04:53:59;;;;;;;20.23;19.43;;;;;;;-141.02;100.00;85113.91;5136847;27;20238;-77
2022/01/15 04:56:27;;;;;;;20.20;19.40;;;;;;;-141.02;100.00;85092.50;5136756;27;20682;-78
2022/01/15 04:58:54;;;;;;;19.57;18.87;;;;;;;-141.02;100.00;85102.22;5136644;27;20220;-77
2022/01/15 05:01:21;;;;;;;20.87;20.07;;;;;;;-141.02;100.00;85098.34;5136961;27;20258;-78
2022/01/15 05:03:48;;;;;;;20.77;19.87;;;;;;;-141.02;100.00;85106.13;5136889;27;20197;-77
2022/01/15 05:06:15;;;;;;;20.77;19.73;;;;;;;-141.02;100.00;85106.13;5137315;27;20198;-78
2022/01/15 05:08:45;;;;;;;20.47;19.33;;;;;;;-141.02;100.00;85069.19;5136907;27;20193;-77
2022/01/15 05:11:13;;;;;;;20.63;19.83;;;;;;;-141.02;100.00;85131.38;5136800;27;20185;-78
2022/01/15 05:13:40;;;;;;;18.77;18.07;;;;;;;-141.02;100.00;85098.34;5136748;27;20220;-78
2022/01/15 05:16:08;;;;;;;18.33;17.63;;;;;;;-141.02;100.00;85080.84;5136800;27;20197;-77
2022/01/15 05:18:35;;;;;;;19.73;19.03;;;;;;;-141.02;100.00;85102.22;5136085;27;20311;-77
2022/01/15 05:21:02;;;;;;;19.23;18.43;;;;;;;-141.02;100.00;85090.56;5136578;27;20224;-78
2022/01/15 05:23:29;;;;;;;17.77;17.17;;;;;;;-141.02;100.00;85090.56;5136570;27;20192;-78
2022/01/15 05:25:57;;;;;;;21.97;20.77;;;;;;;-141.02;100.00;85082.78;5136152;27;20659;-79
2022/01/15 05:28:24;;;;;;;20.00;19.20;;;;;;;-141.02;100.00;85063.34;5136199;27;20189;-78
2022/01/15 05:30:51;;;;;;;19.77;19.07;;;;;;;-141.02;100.00;85086.69;5136603;27;20192;-77
2022/01/15 05:33:18;;;;;;;19.87;19.07;;;;;;;-141.02;100.00;85061.41;5136310;27;20218;-78
2022/01/15 05:35:45;;;;;;;18.13;17.17;;;;;;;-141.02;100.00;85036.16;5136262;27;20224;-77
2022/01/15 05:38:12;;;;;;;20.97;19.93;;;;;;;-141.02;100.00;85024.47;5135920;27;20662;-78
2022/01/15 05:40:40;;;;;;;21.47;20.67;;;;;;;-141.02;100.00;85075.03;5136162;27;20698;-78
2022/01/15 05:43:08;;;;;;;19.57;18.77;;;;;;;-141.02;100.00;85026.44;5136093;27;20677;-77
2022/01/15 05:45:35;;;;;;;20.40;19.50;;;;;;;-141.02;100.00;85040.03;5136174;27;20196;-77
2022/01/15 05:48:02;;;;;;;19.27;18.37;;;;;;;-141.02;100.00;85022.53;5136151;27;20189;-77
2022/01/15 05:50:29;;;;;;;19.67;18.77;;;;;;;-141.02;100.00;85016.72;5135962;27;20234;-77
2022/01/15 05:52:57;;;;;;;20.33;19.43;;;;;;;-141.02;100.00;84989.50;5134803;27;20674;-76
2022/01/15 05:55:24;;;;;;;19.77;18.83;;;;;;;-141.02;100.00;85018.66;5135869;27;20204;-77
2022/01/15 05:57:51;;;;;;;19.17;18.37;;;;;;;-141.02;100.00;85018.66;5135882;27;20654;-78
2022/01/15 06:00:19;;;;;;;19.23;18.37;;;;;;;-141.02;100.00;85016.72;5135415;27;20270;-78
2022/01/15 06:02:47;;;;;;;21.70;20.30;;;;;;;-141.02;100.00;85024.47;5135509;27;20188;-77
2022/01/15 06:05:14;;;;;;;18.50;17.70;;;;;;;-141.02;100.00;85012.81;5135870;27;20230;-78
2022/01/15 06:07:41;;;;;;;19.17;18.37;;;;;;;-141.02;100.00;84968.13;5135722;27;20196;-78
2022/01/15 06:10:09;;;;;;;19.17;18.27;;;;;;;-141.02;100.00;85001.16;5135690;27;20189;-78
2022/01/15 06:12:42;;;;;;;19.80;18.90;;;;;;;-141.02;100.00;85001.16;5135355;27;20742;-79
2022/01/15 06:15:11;;;;;;;22.67;21.47;;;;;;;-141.02;100.00;85005.03;5135388;27;20181;-77
2022/01/15 06:17:39;;;;;;;21.20;20.20;;;;;;;-141.02;100.00;85016.72;5135100;27;20224;-77
2022/01/15 06:20:08;;;;;;;22.57;20.67;;;;;;;-141.02;100.00;84985.59;5135391;27;20659;-79
2022/01/15 06:22:35;;;;;;;20.13;19.13;;;;;;;-141.02;100.00;84989.50;5135289;27;20245;-77
2022/01/15 06:25:03;;;;;;;20.20;19.20;;;;;;;-141.02;100.00;84950.63;5135361;27;20224;-78
2022/01/15 06:27:31;;;;;;;19.90;18.77;;;;;;;-141.02;100.00;84919.53;5135010;27;20283;-77
2022/01/15 06:29:58;;;;;;;20.63;19.27;;;;;;;-141.02;100.00;84993.38;5135283;27;20279;-78
2022/01/15 06:32:26;;;;;;;19.53;18.40;;;;;;;-141.02;100.00;84981.72;5135229;27;20196;-78
2022/01/15 06:34:54;;;;;;;18.90;18.10;;;;;;;-141.02;100.00;84970.06;5135073;27;20203;-78
2022/01/15 06:37:21;;;;;;;20.50;19.40;;;;;;;-141.02;100.00;84997.28;5135113;27;20192;-77
2022/01/15 06:39:49;;;;;;;21.07;19.87;;;;;;;-141.02;100.00;84991.44;5134658;27;20782;-76
2022/01/15 06:42:16;;;;;;;21.67;20.37;;;;;;;-141.02;100.00;85016.72;5134904;27;20288;-78
2022/01/15 06:44:43;;;;;;;19.37;18.27;;;;;;;-141.02;100.00;84985.59;5134742;27;20642;-77
2022/01/15 06:47:10;;;;;;;19.43;18.47;;;;;;;-141.02;100.00;84530.81;5134626;27;20192;-79
2022/01/15 06:49:37;;;;;;;22.17;20.60;;;;;;;-141.02;100.00;84892.31;5134903;27;20196;-78
2022/01/15 06:52:06;;;;;;;23.57;21.93;;;;;;;-141.02;100.00;84973.94;5134815;27;20192;-78
2022/01/15 06:54:33;;;;;;;19.70;18.80;;;;;;;-141.02;100.00;84970.06;5134520;27;20196;-78
2022/01/15 06:57:00;;;;;;;20.37;19.17;;;;;;;-141.02;100.00;85018.66;5134403;27;20192;-78
2022/01/15 06:59:27;;;;;;;21.17;20.07;;;;;;;-141.02;100.00;84993.38;5134616;27;20635;-79
2022/01/15 07:01:55;;;;;;;21.63;20.53;;;;;;;-141.02;100.00;85024.47;5134392;27;20618;-79
2022/01/15 07:04:22;;;;;;;23.13;21.93;;;;;;;-141.02;100.00;85020.59;5134522;27;20219;-79
2022/01/15 07:06:49;;;;;;;19.17;18.27;;;;;;;-141.02;100.00;85069.19;5134684;27;20193;-80
2022/01/15 07:09:17;;;;;;;22.60;21.50;;;;;;;-141.02;100.00;84962.28;5134363;27;20248;-80
2022/01/15 07:11:44;;;;;;;20.67;19.57;;;;;;;-141.02;100.00;85007.00;5134625;27;20224;-81
2022/01/15 07:14:11;;;;;;;20.07;19.07;;;;;;;-141.02;100.00;85008.94;5134205;27;20723;-79
2022/01/15 07:16:38;;;;;;;20.50;19.43;;;;;;;-141.02;100.00;85016.72;5134017;27;20228;-79
2022/01/15 07:19:06;;;;;;;20.70;19.70;;;;;;;-141.02;100.00;85005.03;5134368;27;20181;-79
2022/01/15 07:21:33;;;;;;;22.83;21.10;;;;;;;-141.02;100.00;84991.44;5133983;27;20245;-81
2022/01/15 07:24:00;;;;;;;23.73;21.93;;;;;;;-141.02;100.00;84985.59;5133897;27;20192;-81
2022/01/15 07:26:28;;;;;;;22.47;20.97;;;;;;;-141.02;100.00;84970.06;5134253;27;20642;-81
2022/01/15 07:28:57;;;;;;;19.70;18.70;;;;;;;-141.02;100.00;84997.28;5133820;27;20753;-80
2022/01/15 07:31:24;;;;;;;23.40;22.50;;;;;;;-141.02;100.00;84952.56;5133795;27;20666;-81
2022/01/15 07:33:51;;;;;;;21.57;20.57;;;;;;;-141.02;100.00;85040.03;5133727;27;20189;-80
2022/01/15 07:36:19;;;;;;;20.00;19.10;;;;;;;-141.02;100.00;85001.16;5133932;27;20714;-80
2022/01/15 07:38:46;;;;;;;23.17;22.17;;;;;;;-141.02;100.00;84985.59;5133566;27;20551;-81
2022/01/15 07:41:13;;;;;;;23.50;22.40;;;;;;;-141.02;100.00;85016.72;5133727;27;20272;-79
2022/01/15 07:43:43;;;;;;;22.00;20.93;;;;;;;-141.02;100.00;84843.72;5134010;27;20192;-80
2022/01/15 07:46:10;;;;;;;24.37;23.27;;;;;;;-141.02;100.00;85040.03;5133905;27;20223;-82
2022/01/15 07:48:37;;;;;;;28.13;26.23;;;;;;;-141.02;100.00;85008.94;5133867;27;20204;-76
2022/01/15 07:51:04;;;;;;;28.33;26.70;;;;;;;-141.02;100.00;84995.31;5133753;27;20192;-80
2022/01/15 07:53:31;;;;;;;27.10;25.60;;;;;;;-141.02;100.00;84851.50;5134605;27;20232;-81
2022/01/15 07:55:58;;;;;;;24.10;22.67;;;;;;;-141.02;100.00;85020.59;5134009;27;20204;-83
2022/01/15 07:58:25;;;;;;;26.53;25.20;;;;;;;-141.02;100.00;84989.50;5133734;27;20196;-80
2022/01/15 08:00:54;;;;;;;29.90;28.23;;;;;;;-141.02;100.00;85028.38;5133203;27;20777;-81
2022/01/15 08:03:21;;;;;;;26.17;24.47;;;;;;;-141.02;100.00;85026.44;5134188;27;20677;-81
2022/01/15 08:05:48;;;;;;;24.83;23.43;;;;;;;-141.02;100.00;85043.91;5134173;27;20275;-81
2022/01/15 08:08:16;;;;;;;28.53;26.30;;;;;;;-141.02;100.00;84973.94;5134956;27;20641;-82
2022/01/15 08:10:44;;;;;;;25.97;24.27;;;;;;;-141.02;100.00;84985.59;5135284;27;20192;-81
2022/01/15 08:13:12;;;;;;;26.70;24.90;;;;;;;-141.02;100.00;84993.38;5135448;27;20192;-81
2022/01/15 08:15:39;;;;;;;29.57;28.07;;;;;;;-141.02;100.00;85055.59;5135825;27;20189;-81
2022/01/15 08:18:07;;;;;;;28.73;27.13;;;;;;;-141.02;100.00;84970.06;5138869;27;20277;-79
2022/01/15 08:20:34;;;;;;;32.60;30.90;;;;;;;-141.02;100.00;85032.25;5135636;27;20281;-79
2022/01/15 08:23:01;;;;;;;33.50;31.60;;;;;;;-141.02;100.00;85040.03;5134694;27;20192;-79
2022/01/15 08:25:29;;;;;;;34.10;32.20;;;;;;;-141.02;100.00;85034.19;5133322;28;20188;-78
2022/01/15 08:27:56;;;;;;;34.57;32.67;;;;;;;-141.02;100.00;85016.72;5133011;27;20283;-80
2022/01/15 08:30:24;;;;;;;29.20;27.70;;;;;;;-141.02;100.00;84989.50;5133014;27;20200;-79
2022/01/15 08:32:51;;;;;;;34.83;32.60;;;;;;;-141.02;100.00;84972.00;5133019;28;20731;-77
2022/01/15 08:35:20;;;;;;;36.07;33.50;;;;;;;-141.02;100.00;84973.94;5132869;28;20188;-76
2022/01/15 08:37:48;;;;;;;35.93;33.17;;;;;;;-141.02;100.00;84989.50;5132953;28;20283;-79
2022/01/15 08:40:19;;;;;;;36.83;33.97;;;;;;;-141.02;100.00;84810.69;5133110;28;20254;-79
2022/01/15 08:42:46;;;;;;;37.77;35.27;;;;;;;-141.02;100.00;84966.19;5132954;28;20291;-78
2022/01/15 08:45:15;;;;;;;34.90;32.80;;;;;;;-141.02;100.00;84946.75;5133056;27;20196;-76
2022/01/15 08:47:42;;;;;;;32.97;31.17;;;;;;;-141.02;100.00;84983.66;5133120;28;20220;-77
2022/01/15 08:50:11;;;;;;;33.43;31.57;;;;;;;-141.02;100.00;85005.03;5132837;28;20288;-78
2022/01/15 08:52:41;;;;;;;33.33;31.53;;;;;;;-141.02;100.00;84973.94;5133120;27;20196;-79
2022/01/15 08:55:09;;;;;;;30.87;28.93;;;;;;;-141.02;100.00;84966.19;5132965;27;20718;-80
2022/01/15 08:57:37;;;;;;;34.70;32.60;;;;;;;-141.02;100.00;84993.38;5132920;28;20235;-75
2022/01/15 09:00:11;;;;;;;32.33;30.53;;;;;;;-141.02;100.00;84989.50;5133006;27;20701;-80
2022/01/15 09:02:39;;;;;;;36.93;34.50;;;;;;;-141.02;100.00;84977.84;5133324;28;20185;-78
2022/01/15 09:05:06;;;;;;;33.97;32.17;;;;;;;-141.02;100.00;85010.88;5133247;28;20252;-76
2022/01/15 09:07:34;;;;;;;34.73;32.70;;;;;;;-141.02;100.00;85607.63;5132723;28;20192;-79
2022/01/15 09:10:03;;;;;;;33.67;31.77;;;;;;;-141.02;100.00;84991.44;5132993;27;20253;-78
2022/01/15 09:12:30;;;;;;;38.80;36.50;;;;;;;-141.02;100.00;84985.59;5132921;28;20189;-79
2022/01/15 09:14:59;;;;;;;37.10;34.80;;;;;;;-141.02;100.00;85005.03;5132919;28;20238;-76
2022/01/15 09:17:26;;;;;;;35.73;33.80;;;;;;;-141.02;100.00;85059.47;5132603;27;20232;-80
2022/01/15 09:19:53;;;;;;;35.83;33.93;;;;;;;-141.02;100.00;84604.69;5132591;28;20287;-80
2022/01/15 09:22:20;;;;;;;36.50;34.53;;;;;;;-141.02;100.00;85001.16;5132980;27;20320;-78
2022/01/15 09:24:48;;;;;;;35.83;33.73;;;;;;;-141.02;100.00;85028.38;5132759;27;20193;-79
2022/01/15 09:30:14;;;;;;;33.40;31.17;;;;;;;-141.02;100.00;85001.16;5137014;27;20196;-77
2022/01/15 09:32:41;;;;;;;34.90;32.20;;;;;;;-141.02;100.00;84732.94;5136411;27;20184;-78
2022/01/15 09:35:09;;;;;;;35.43;33.23;;;;;;;-141.02;100.00;84989.50;5136823;27;20658;-78
2022/01/15 09:37:36;;;;;;;34.67;32.57;;;;;;;-141.02;100.00;84989.50;5136560;27;20311;-79
2022/01/15 09:40:05;;;;;;;36.80;34.43;;;;;;;-141.02;100.00;85005.03;5136232;27;20303;-78
2022/01/15 09:42:34;;;;;;;36.10;33.90;;;;;;;-141.02;100.00;84993.38;5137353;27;20647;-79
2022/01/15 09:45:04;;;;;;;33.90;31.70;;;;;;;-141.02;100.00;84973.94;5136130;27;20636;-79
2022/01/15 09:47:32;;;;;;;33.07;31.07;;;;;;;-141.02;100.00;84995.31;5136406;27;20220;-81
2022/01/15 09:50:01;;;;;;;36.77;34.40;;;;;;;-141.02;100.00;84900.09;5136151;27;20192;-82
2022/01/15 09:52:28;;;;;;;34.57;32.53;;;;;;;-141.02;100.00;84985.59;5136417;27;20257;-80
2022/01/15 09:54:55;;;;;;;33.10;31.33;;;;;;;-141.02;100.00;84993.38;5135664;27;20552;-82
2022/01/15 09:57:22;;;;;;;33.97;32.17;;;;;;;-141.02;100.00;85003.09;5136838;27;20219;-79
2022/01/15 09:59:51;;;;;;;35.37;33.47;;;;;;;-141.02;100.00;84989.50;5141273;27;20227;-80
2022/01/15 10:02:18;;;;;;;38.03;35.20;;;;;;;-141.02;100.00;84972.00;5136518;27;20250;-79
2022/01/15 10:04:45;;;;;;;32.70;30.20;;;;;;;-141.02;100.00;84938.97;5135737;27;20192;-79
2022/01/15 10:07:15;;;;;;;24.13;22.87;;;;;;;-141.02;100.00;84810.69;5135691;27;20227;-79
2022/01/15 10:09:45;;;;;;;29.53;27.13;;;;;;;-141.02;100.00;84927.31;5135419;27;20232;-79
2022/01/15 10:12:12;;;;;;;27.93;26.53;;;;;;;-141.02;100.00;84944.78;5135602;27;20273;-79
2022/01/15 10:14:41;;;;;;;27.10;25.70;;;;;;;-141.02;100.00;84956.47;5135333;27;20640;-79
2022/01/15 10:17:25;;;;;;;25.80;24.40;;;;;;;-141.02;100.00;84921.47;5135650;27;20238;-79
2022/01/15 10:19:53;;;;;;;24.43;22.67;;;;;;;-141.02;98.65;84888.44;5134293;27;20741;-78
2022/01/15 10:22:22;;;;;;;25.80;24.20;;;;;;;-141.02;97.89;84921.47;5135811;27;20253;-79
2022/01/15 10:24:56;;;;;;;25.47;24.07;;;;;;;-141.02;97.17;84931.19;5136076;27;20246;-79
2022/01/15 10:27:29;;;;;;;26.57;25.07;;;;;;;-141.02;94.42;84919.53;5135048;27;20188;-80
2022/01/15 10:30:07;;;;;;;26.23;24.57;;;;;;;-141.02;94.55;84931.19;5135607;27;20734;-79
2022/01/15 10:32:37;;;;;;;25.77;24.07;;;;;;;-141.02;93.12;84863.16;5139748;27;20271;-79
2022/01/15 10:35:13;;;;;;;23.60;22.10;;;;;;;-141.02;92.45;84876.78;5136565;27;20184;-78
2022/01/15 10:37:51;;;;;;;24.17;22.77;;;;;;;-141.02;89.18;84903.97;5134746;27;20255;-79
2022/01/15 10:40:22;;;;;;;26.07;24.53;;;;;;;-141.02;89.01;84927.31;5135020;27;20229;-78
2022/01/15 10:42:56;;;;;;;24.10;22.63;;;;;;;-141.02;89.53;84950.63;5136130;27;20279;-80
2022/01/15 10:45:25;;;;;;;29.37;26.93;;;;;;;-141.02;93.61;84867.06;5136756;27;20184;-80
2022/01/15 10:47:55;;;;;;;24.90;23.40;;;;;;;-141.02;93.84;84849.56;5136498;27;20196;-80
2022/01/15 10:50:25;;;;;;;27.17;25.13;;;;;;;-141.02;92.72;84859.28;5136203;27;20665;-79
2022/01/15 10:52:53;;;;;;;28.37;26.23;;;;;;;-141.02;91.57;84919.53;5135721;27;20193;-79
2022/01/15 10:55:26;;;;;;;27.83;25.33;;;;;;;-141.02;93.29;84911.75;5136574;27;20192;-79
2022/01/15 10:57:58;;;;;;;28.63;26.20;;;;;;;-141.02;94.54;84231.56;5135348;27;20185;-79
2022/01/15 11:00:27;;;;;;;27.60;25.37;;;;;;;-141.02;96.35;86562.28;5135137;27;20584;-78
2022/01/15 11:02:59;;;;;;;26.57;24.97;;;;;;;-141.02;97.78;84954.50;5136743;27;20279;-79
2022/01/15 11:05:34;;;;;;;24.30;23.00;;;;;;;-141.02;98.91;84907.88;5134891;27;20247;-79
2022/01/15 11:08:08;;;;;;;22.87;21.57;;;;;;;-141.02;91.65;85592.09;5134874;27;20594;-79
2022/01/15 11:10:43;;;;;;;28.40;26.37;;;;;;;-141.02;86.29;84837.91;5136149;27;20196;-79
2022/01/15 11:13:12;;;;;;;25.67;23.90;;;;;;;-141.02;87.31;84832.06;5135985;27;20188;-79
2022/01/15 11:15:40;;;;;;;28.60;26.60;;;;;;;-141.02;84.57;84834.00;5134665;27;20192;-78
2022/01/15 11:18:12;;;;;;;25.43;23.93;;;;;;;-141.02;83.56;84876.78;5136014;27;20228;-79
2022/01/15 11:20:40;;;;;;;23.30;22.00;;;;;;;-141.02;84.27;84884.53;5137435;27;20261;-78